createdAt,value
2022-10-21T00:01:42.508Z,9.96
2022-10-21T00:04:09.502Z,9.69
2022-10-21T00:06:36.356Z,9.62
2022-10-21T00:09:03.348Z,9.37
2022-10-21T00:11:30.230Z,9.30
2022-10-21T00:13:57.073Z,9.66
2022-10-21T00:16:23.995Z,9.95
2022-10-21T00:18:50.920Z,9.87
2022-10-21T00:21:22.810Z,9.87
2022-10-21T00:23:50.305Z,9.98
2022-10-21T00:26:18.813Z,10.15
2022-10-21T00:28:45.672Z,9.84
2022-10-21T00:31:14.377Z,9.41
2022-10-21T00:33:42.155Z,9.30
2022-10-21T00:36:15.014Z,9.37
2022-10-21T00:38:44.907Z,9.45
2022-10-21T00:41:13.391Z,9.22
2022-10-21T00:44:13.678Z,9.26
2022-10-21T00:46:54.010Z,9.15
2022-10-21T00:49:53.389Z,9.32
2022-10-21T00:52:22.401Z,8.77
2022-10-21T00:54:52.961Z,8.86
2022-10-21T00:57:21.758Z,8.95
2022-10-21T00:59:53.814Z,9.38
2022-10-21T01:02:21.760Z,8.82
2022-10-21T01:04:57.493Z,9.20
2022-10-21T01:07:24.882Z,9.43
2022-10-21T01:09:51.807Z,9.33
2022-10-21T01:12:27.760Z,9.24
2022-10-21T01:17:44.086Z,9.26
2022-10-21T01:20:31.611Z,9.07
2022-10-21T01:23:35.588Z,8.89
2022-10-21T01:26:21.092Z,8.63
2022-10-21T01:29:12.230Z,8.59
2022-10-21T01:31:42.448Z,8.54
2022-10-21T01:34:27.161Z,8.59
2022-10-21T01:36:58.578Z,8.54
2022-10-21T01:39:57.619Z,8.59
2022-10-21T01:42:42.780Z,8.55
2022-10-21T01:45:35.873Z,8.49
2022-10-21T01:48:16.017Z,8.52
2022-10-21T01:50:49.386Z,8.91
2022-10-21T01:53:17.627Z,9.06
2022-10-21T01:55:46.017Z,8.70
2022-10-21T01:58:19.579Z,8.69
2022-10-21T02:00:48.536Z,8.56
2022-10-21T02:03:21.053Z,8.37
2022-10-21T02:05:47.917Z,8.32
2022-10-21T02:08:15.111Z,8.92
2022-10-21T02:10:50.878Z,9.04
2022-10-21T02:13:25.288Z,9.01
2022-10-21T02:15:59.941Z,9.32
2022-10-21T02:18:27.205Z,9.00
2022-10-21T02:21:05.238Z,8.73
2022-10-21T02:23:42.994Z,9.09
2022-10-21T02:26:10.467Z,8.94
2022-10-21T02:31:22.553Z,8.60
2022-10-21T02:34:30.322Z,8.84
2022-10-21T02:37:26.157Z,9.22
2022-10-21T02:40:18.994Z,9.17
2022-10-21T02:42:51.563Z,9.14
2022-10-21T02:45:18.712Z,9.10
2022-10-21T02:47:48.431Z,9.04
2022-10-21T02:50:15.457Z,9.17
2022-10-21T02:52:42.380Z,9.38
2022-10-21T02:55:09.635Z,9.33
2022-10-21T02:57:36.900Z,9.45
2022-10-21T03:00:06.143Z,9.30
2022-10-21T03:02:33.221Z,9.05
2022-10-21T03:05:00.105Z,9.02
2022-10-21T03:07:26.956Z,8.70
2022-10-21T03:09:53.950Z,8.72
2022-10-21T03:12:20.897Z,8.97
2022-10-21T03:14:47.762Z,8.97
2022-10-21T03:17:14.610Z,8.55
2022-10-21T03:19:41.452Z,8.73
2022-10-21T03:22:08.289Z,8.87
2022-10-21T03:24:35.146Z,8.72
2022-10-21T03:27:02.889Z,9.21
2022-10-21T03:29:29.805Z,8.45
2022-10-21T03:31:56.673Z,8.81
2022-10-21T03:34:23.586Z,9.08
2022-10-21T03:36:50.432Z,8.89
2022-10-21T03:39:17.303Z,8.88
2022-10-21T03:41:44.164Z,8.88
2022-10-21T03:44:11.072Z,8.64
2022-10-21T03:46:38.657Z,8.71
2022-10-21T03:49:09.079Z,8.46
2022-10-21T03:51:39.013Z,8.31
2022-10-21T03:54:06.012Z,8.62
2022-10-21T03:56:33.038Z,8.77
2022-10-21T03:59:00.035Z,8.99
2022-10-21T04:01:27.599Z,9.24
2022-10-21T04:03:54.622Z,8.31
2022-10-21T04:06:21.587Z,7.52
2022-10-21T04:08:48.501Z,7.57
2022-10-21T04:11:15.565Z,7.40
2022-10-21T04:13:42.540Z,7.39
2022-10-21T04:16:14.992Z,7.83
2022-10-21T04:18:41.859Z,7.96
2022-10-21T04:21:08.988Z,7.95
2022-10-21T04:23:36.523Z,8.20
2022-10-21T04:26:04.583Z,8.19
2022-10-21T04:28:31.749Z,7.66
2022-10-21T04:30:58.738Z,7.29
2022-10-21T04:33:25.818Z,7.28
2022-10-21T04:35:56.064Z,8.30
2022-10-21T04:38:23.629Z,8.46
2022-10-21T04:41:01.554Z,8.69
2022-10-21T04:43:29.244Z,9.26
2022-10-21T04:45:56.628Z,10.03
2022-10-21T04:48:24.266Z,10.82
2022-10-21T04:50:53.037Z,10.65
2022-10-21T04:53:21.047Z,10.69
2022-10-21T04:55:54.758Z,12.15
2022-10-21T04:58:22.432Z,12.57
2022-10-21T05:00:51.332Z,13.21
2022-10-21T05:03:19.375Z,13.61
2022-10-21T05:05:50.389Z,14.70
2022-10-21T05:08:17.324Z,15.30
2022-10-21T05:10:44.345Z,15.75
2022-10-21T05:13:11.484Z,15.86
2022-10-21T05:15:38.492Z,15.57
2022-10-21T05:18:05.455Z,14.67
2022-10-21T05:20:32.411Z,14.56
2022-10-21T05:22:59.352Z,14.94
2022-10-21T05:25:28.177Z,16.06
2022-10-21T05:27:57.377Z,16.13
2022-10-21T05:30:24.323Z,15.51
2022-10-21T05:32:51.226Z,18.12
2022-10-21T05:35:18.226Z,19.71
2022-10-21T05:37:45.093Z,19.02
2022-10-21T05:40:12.409Z,22.52
2022-10-21T05:42:39.592Z,22.99
2022-10-21T05:45:07.421Z,24.38
2022-10-21T05:47:34.321Z,24.72
2022-10-21T05:50:01.194Z,23.72
2022-10-21T05:52:28.105Z,24.27
2022-10-21T05:54:55.027Z,24.11
2022-10-21T05:57:21.856Z,24.84
2022-10-21T05:59:48.843Z,25.60
2022-10-21T06:02:15.867Z,25.99
2022-10-21T06:04:42.784Z,27.01
2022-10-21T06:07:10.085Z,26.79
2022-10-21T06:09:37.985Z,25.11
2022-10-21T06:12:05.744Z,25.25
2022-10-21T06:14:32.596Z,24.49
2022-10-21T06:22:38.988Z,24.25
2022-10-21T06:25:06.223Z,23.75
2022-10-21T06:27:33.120Z,24.21
2022-10-21T06:30:00.102Z,25.80
2022-10-21T06:32:27.025Z,25.15
2022-10-21T06:34:54.442Z,26.01
2022-10-21T06:37:21.413Z,25.62
2022-10-21T06:39:48.339Z,26.75
2022-10-21T06:42:16.045Z,27.42
2022-10-21T06:44:47.511Z,27.50
2022-10-21T06:47:14.443Z,27.36
2022-10-21T06:49:41.393Z,26.00
2022-10-21T06:52:08.361Z,27.22
2022-10-21T06:54:35.378Z,28.86
2022-10-21T06:57:03.377Z,29.51
2022-10-21T06:59:31.178Z,29.55
2022-10-21T07:02:00.965Z,29.68
2022-10-21T07:04:29.414Z,27.77
2022-10-21T07:06:56.392Z,28.11
2022-10-21T07:09:23.394Z,27.40
2022-10-21T07:11:50.279Z,27.13
2022-10-21T07:14:17.175Z,26.82
2022-10-21T07:16:44.118Z,26.33
2022-10-21T07:19:11.127Z,24.92
2022-10-21T07:21:38.387Z,24.20
2022-10-21T07:24:05.383Z,23.87
2022-10-21T07:26:34.376Z,24.89
2022-10-21T07:29:01.723Z,26.44
2022-10-21T07:31:31.867Z,26.40
2022-10-21T07:34:00.624Z,26.82
2022-10-21T07:36:30.729Z,26.38
2022-10-21T07:39:01.096Z,24.64
2022-10-21T07:41:31.917Z,25.23
2022-10-21T07:43:59.131Z,25.47
2022-10-21T07:46:26.388Z,26.85
2022-10-21T07:48:54.049Z,27.50
2022-10-21T07:53:10.927Z,27.50
2022-10-21T07:55:39.446Z,26.91
2022-10-21T07:58:06.352Z,28.20
2022-10-21T08:00:33.258Z,27.07
2022-10-21T08:03:00.252Z,28.11
2022-10-21T08:05:27.416Z,26.58
2022-10-21T08:07:54.374Z,25.75
2022-10-21T08:10:21.494Z,25.50
2022-10-21T08:12:48.530Z,26.55
2022-10-21T08:15:15.565Z,25.63
2022-10-21T08:17:42.470Z,25.61
2022-10-21T08:20:09.875Z,25.84
2022-10-21T08:22:37.226Z,26.07
2022-10-21T08:25:04.714Z,26.14
2022-10-21T08:27:31.798Z,26.37
2022-10-21T08:29:58.597Z,26.49
2022-10-21T08:32:25.549Z,23.73
2022-10-21T08:34:52.462Z,22.13
2022-10-21T08:37:23.390Z,23.56
2022-10-21T08:39:52.477Z,23.38
2022-10-21T08:42:20.285Z,23.87
2022-10-21T08:44:55.729Z,22.90
2022-10-21T08:47:45.958Z,23.10
2022-10-21T08:50:17.210Z,23.01
2022-10-21T08:52:48.634Z,23.09
2022-10-21T08:55:33.921Z,23.95
2022-10-21T08:58:01.707Z,23.46
2022-10-21T09:00:34.380Z,23.11
2022-10-21T09:03:54.415Z,23.61
2022-10-21T09:06:39.579Z,23.56
2022-10-21T09:09:19.859Z,22.23
2022-10-21T09:11:56.330Z,20.56
2022-10-21T09:14:44.450Z,20.30
2022-10-21T09:18:02.223Z,20.26
2022-10-21T09:21:05.645Z,19.95
2022-10-21T09:23:54.587Z,20.67
2022-10-21T09:26:45.062Z,20.18
2022-10-21T09:29:27.109Z,21.40
2022-10-21T09:32:15.537Z,21.37
2022-10-21T09:35:18.061Z,21.54
2022-10-21T09:38:06.731Z,22.87
2022-10-21T09:40:34.134Z,22.65
2022-10-21T09:43:02.276Z,25.07
2022-10-21T09:45:36.300Z,23.71
2022-10-21T09:48:17.993Z,23.85
2022-10-21T09:51:04.058Z,23.66
2022-10-21T09:53:43.583Z,21.31
2022-10-21T09:56:34.076Z,19.82
2022-10-21T09:59:07.581Z,19.65
2022-10-21T10:01:36.364Z,18.74
2022-10-21T10:04:12.510Z,19.40
2022-10-21T10:06:42.609Z,19.45
2022-10-21T10:09:17.100Z,19.10
2022-10-21T10:12:14.225Z,18.95
2022-10-21T10:14:43.813Z,19.75
2022-10-21T10:17:29.352Z,18.62
2022-10-21T10:20:05.832Z,18.75
2022-10-21T10:22:58.376Z,19.02
2022-10-21T10:25:30.986Z,19.76
2022-10-21T10:28:02.119Z,19.46
2022-10-21T10:30:51.082Z,19.77
2022-10-21T10:33:25.185Z,19.32
2022-10-21T10:35:55.399Z,19.60
2022-10-21T10:38:30.901Z,19.05
2022-10-21T10:41:07.025Z,18.92
2022-10-21T10:43:37.381Z,19.35
2022-10-21T10:46:08.596Z,18.47
2022-10-21T10:48:38.541Z,18.11
2022-10-21T10:51:24.255Z,18.38
2022-10-21T10:54:17.851Z,17.97
2022-10-21T10:56:50.248Z,17.90
2022-10-21T10:59:23.205Z,18.36
2022-10-21T11:02:10.302Z,18.58
2022-10-21T11:04:58.436Z,18.84
2022-10-21T11:07:43.642Z,19.42
2022-10-21T11:10:33.914Z,18.29
2022-10-21T11:13:16.107Z,18.88
2022-10-21T11:15:51.935Z,19.23
2022-10-21T11:18:25.245Z,18.32
2022-10-21T11:21:15.407Z,18.28
2022-10-21T11:23:54.399Z,18.00
2022-10-21T11:26:43.393Z,17.61
2022-10-21T11:29:39.201Z,17.48
2022-10-21T11:32:12.575Z,18.52
2022-10-21T11:35:16.803Z,18.43
2022-10-21T11:38:20.843Z,18.83
2022-10-21T11:41:02.068Z,19.52
2022-10-21T11:43:50.211Z,19.90
2022-10-21T11:46:32.117Z,18.27
2022-10-21T11:49:14.064Z,17.76
2022-10-21T11:52:06.991Z,18.46
2022-10-21T11:54:59.692Z,17.45
2022-10-21T11:57:46.450Z,17.99
2022-10-21T12:00:23.017Z,19.67
2022-10-21T12:03:36.983Z,18.40
2022-10-21T12:06:13.217Z,17.74
2022-10-21T12:08:56.169Z,17.58
2022-10-21T12:11:39.312Z,17.44
2022-10-21T12:14:21.326Z,17.64
2022-10-21T12:16:49.580Z,18.14
2022-10-21T12:19:16.834Z,18.40
2022-10-21T12:21:45.985Z,18.05
2022-10-21T12:24:21.887Z,17.24
2022-10-21T12:26:53.560Z,17.58
2022-10-21T12:29:20.344Z,16.97
2022-10-21T12:31:49.951Z,18.02
2022-10-21T12:34:17.477Z,17.81
2022-10-21T12:36:51.037Z,17.36
2022-10-21T12:39:33.053Z,17.02
2022-10-21T12:42:17.357Z,17.14
2022-10-21T12:44:50.086Z,17.69
2022-10-21T12:47:37.392Z,17.83
2022-10-21T12:50:19.270Z,17.27
2022-10-21T12:52:47.499Z,17.15
2022-10-21T12:55:25.856Z,16.97
2022-10-21T12:58:03.824Z,16.72
2022-10-21T13:00:30.719Z,17.34
2022-10-21T13:03:00.296Z,16.37
2022-10-21T13:05:39.239Z,17.29
2022-10-21T13:08:24.223Z,17.46
2022-10-21T13:11:06.432Z,17.01
2022-10-21T13:13:37.625Z,16.91
2022-10-21T13:16:19.952Z,16.74
2022-10-21T13:18:57.980Z,16.13
2022-10-21T13:21:34.063Z,15.90
2022-10-21T13:24:13.124Z,16.04
2022-10-21T13:27:05.140Z,16.10
2022-10-21T13:29:38.039Z,16.17
2022-10-21T13:32:14.037Z,15.93
2022-10-21T13:35:01.269Z,15.91
2022-10-21T13:37:37.799Z,15.48
2022-10-21T13:40:31.775Z,15.51
2022-10-21T13:43:03.219Z,14.76
2022-10-21T13:45:30.169Z,14.48
2022-10-21T13:48:03.189Z,14.42
2022-10-21T13:50:33.788Z,14.25
2022-10-21T13:53:05.562Z,14.53
2022-10-21T13:55:32.471Z,14.05
2022-10-21T13:57:59.437Z,13.95
2022-10-21T14:00:30.473Z,13.93
2022-10-21T14:03:03.319Z,13.86
2022-10-21T14:05:47.077Z,14.01
2022-10-21T14:08:42.298Z,13.92
2022-10-21T14:11:24.569Z,13.88
2022-10-21T14:13:51.811Z,13.93
2022-10-21T14:16:32.201Z,14.13
2022-10-21T14:19:01.392Z,13.83
2022-10-21T14:21:31.421Z,13.61
2022-10-21T14:23:58.677Z,13.61
2022-10-21T14:26:31.160Z,13.58
2022-10-21T14:29:04.220Z,13.50
2022-10-21T14:31:31.210Z,13.57
2022-10-21T14:33:58.287Z,13.55
2022-10-21T14:36:27.855Z,13.56
2022-10-21T14:38:59.224Z,13.51
2022-10-21T14:41:34.973Z,13.32
2022-10-21T14:44:16.251Z,13.58
2022-10-21T14:46:45.976Z,13.18
2022-10-21T14:49:22.553Z,13.27
2022-10-21T14:51:50.595Z,13.23
2022-10-21T14:54:36.133Z,13.13
2022-10-21T14:57:04.620Z,13.12
2022-10-21T14:59:39.525Z,13.02
2022-10-21T15:02:20.890Z,12.99
2022-10-21T15:05:00.224Z,12.93
2022-10-21T15:07:29.227Z,12.78
2022-10-21T15:10:02.123Z,12.78
2022-10-21T15:12:52.813Z,12.64
2022-10-21T15:15:39.782Z,12.48
2022-10-21T15:18:20.701Z,12.36
2022-10-21T15:20:56.652Z,12.44
2022-10-21T15:23:34.313Z,12.47
2022-10-21T15:26:34.220Z,12.34
2022-10-21T15:29:11.790Z,12.27
2022-10-21T15:31:38.773Z,12.20
2022-10-21T15:34:07.151Z,12.26
2022-10-21T15:36:37.452Z,12.23
2022-10-21T15:39:06.872Z,12.33
2022-10-21T15:41:36.447Z,12.34
2022-10-21T15:44:16.207Z,12.38
2022-10-21T15:46:46.931Z,12.73
2022-10-21T15:49:19.876Z,12.45
2022-10-21T15:51:48.062Z,12.66
2022-10-21T15:54:16.888Z,12.79
2022-10-21T15:56:45.535Z,12.88
2022-10-21T15:59:24.570Z,12.98
2022-10-21T16:01:52.072Z,13.06
2022-10-21T16:04:19.868Z,13.00
2022-10-21T16:06:50.094Z,13.01
2022-10-21T16:09:27.935Z,13.12
2022-10-21T16:12:00.773Z,13.05
2022-10-21T16:14:30.677Z,12.98
2022-10-21T16:16:59.155Z,13.23
2022-10-21T16:19:26.553Z,13.09
2022-10-21T16:21:53.665Z,12.83
2022-10-21T16:24:20.749Z,13.15
2022-10-21T16:26:49.557Z,13.24
2022-10-21T16:29:24.444Z,13.10
2022-10-21T16:31:52.137Z,13.22
2022-10-21T16:34:20.050Z,12.74
2022-10-21T16:36:47.008Z,12.92
2022-10-21T16:39:17.145Z,13.12
2022-10-21T16:41:44.123Z,13.20
2022-10-21T16:44:11.111Z,12.90
2022-10-21T16:46:51.159Z,12.86
2022-10-21T16:49:28.335Z,12.91
2022-10-21T16:51:57.625Z,12.86
2022-10-21T16:54:24.598Z,12.75
2022-10-21T16:56:54.776Z,12.42
2022-10-21T16:59:23.327Z,12.83
2022-10-21T17:01:50.413Z,12.92
2022-10-21T17:04:18.072Z,12.96
2022-10-21T17:06:44.971Z,13.03
2022-10-21T17:09:11.972Z,12.99
2022-10-21T17:11:40.995Z,13.05
2022-10-21T17:14:14.684Z,12.94
2022-10-21T17:16:41.553Z,12.90
2022-10-21T17:19:08.410Z,12.82
2022-10-21T17:21:35.351Z,12.79
2022-10-21T17:24:03.988Z,12.84
2022-10-21T17:26:31.372Z,12.73
2022-10-21T17:28:58.318Z,12.45
2022-10-21T17:31:27.721Z,12.37
2022-10-21T17:33:58.584Z,12.60
2022-10-21T17:36:25.574Z,12.62
2022-10-21T17:38:52.418Z,12.58
2022-10-21T17:41:20.573Z,12.63
2022-10-21T17:43:48.386Z,12.16
2022-10-21T17:46:25.690Z,11.88
2022-10-21T17:48:54.726Z,12.24
2022-10-21T17:51:24.232Z,12.39
2022-10-21T17:53:52.920Z,12.29
2022-10-21T17:56:20.813Z,12.09
2022-10-21T17:58:52.634Z,11.98
2022-10-21T18:01:20.335Z,11.74
2022-10-21T18:03:47.597Z,11.80
2022-10-21T18:06:15.826Z,11.62
2022-10-21T18:08:43.624Z,11.57
2022-10-21T18:11:13.162Z,11.68
2022-10-21T18:13:41.006Z,11.80
2022-10-21T18:16:17.534Z,11.77
2022-10-21T18:18:45.726Z,11.35
2022-10-21T18:21:19.372Z,11.31
2022-10-21T18:23:48.952Z,11.45
2022-10-21T18:26:19.621Z,11.50
2022-10-21T18:28:51.444Z,11.60
2022-10-21T18:31:23.747Z,11.87
2022-10-21T18:33:54.184Z,11.82
2022-10-21T18:36:22.173Z,11.92
2022-10-21T18:38:49.291Z,11.82
2022-10-21T18:41:20.621Z,11.99
2022-10-21T18:43:50.858Z,11.85
2022-10-21T18:46:18.588Z,11.81
2022-10-21T18:48:45.852Z,11.90
2022-10-21T18:51:15.679Z,11.85
2022-10-21T18:53:46.080Z,11.78
2022-10-21T18:56:16.998Z,11.91
2022-10-21T18:58:44.523Z,11.90
2022-10-21T19:01:12.617Z,11.54
2022-10-21T19:03:39.972Z,11.17
2022-10-21T19:06:29.819Z,11.34
2022-10-21T19:08:56.842Z,11.44
2022-10-21T19:11:24.054Z,11.32
2022-10-21T19:13:50.911Z,11.06
2022-10-21T19:16:17.805Z,11.26
2022-10-21T19:18:44.766Z,11.20
2022-10-21T19:21:13.118Z,11.48
2022-10-21T19:23:40.079Z,11.59
2022-10-21T19:26:08.902Z,11.57
2022-10-21T19:28:36.706Z,11.51
2022-10-21T19:31:03.923Z,11.73
2022-10-21T19:33:31.201Z,11.69
2022-10-21T19:36:02.638Z,11.76
2022-10-21T19:38:43.781Z,11.67
2022-10-21T19:41:15.900Z,11.80
2022-10-21T19:43:43.461Z,11.75
2022-10-21T19:46:14.685Z,11.80
2022-10-21T19:48:41.558Z,11.83
2022-10-21T19:51:15.763Z,11.87
2022-10-21T19:53:45.283Z,11.62
2022-10-21T19:56:13.237Z,11.39
2022-10-21T19:58:41.254Z,11.46
2022-10-21T20:01:11.970Z,11.29
2022-10-21T20:03:41.024Z,11.64
2022-10-21T20:06:09.956Z,11.77
2022-10-21T20:08:40.065Z,11.87
2022-10-21T20:11:27.279Z,11.99
2022-10-21T20:13:54.823Z,11.89
2022-10-21T20:16:24.012Z,11.42
2022-10-21T20:18:51.049Z,11.53
2022-10-21T20:21:18.312Z,11.43
2022-10-21T20:23:45.260Z,11.18
2022-10-21T20:26:12.541Z,11.18
2022-10-21T20:28:39.485Z,10.91
2022-10-21T20:31:09.087Z,11.24
2022-10-21T20:33:41.639Z,10.90
2022-10-21T20:36:12.673Z,10.78
2022-10-21T20:38:39.923Z,11.04
2022-10-21T20:41:09.745Z,10.94
2022-10-21T20:43:38.747Z,10.70
2022-10-21T20:46:08.998Z,11.19
2022-10-21T20:48:36.985Z,11.22
2022-10-21T20:51:12.154Z,10.96
2022-10-21T20:53:40.413Z,10.67
2022-10-21T20:56:07.611Z,10.86
2022-10-21T20:58:36.386Z,10.81
2022-10-21T21:01:11.973Z,10.72
2022-10-21T21:03:41.886Z,10.91
2022-10-21T21:06:10.250Z,10.99
2022-10-21T21:08:44.597Z,11.10
2022-10-21T21:11:16.424Z,11.03
2022-10-21T21:13:44.769Z,10.82
2022-10-21T21:16:19.912Z,10.72
2022-10-21T21:18:57.431Z,10.86
2022-10-21T21:21:26.979Z,10.66
2022-10-21T21:23:54.862Z,10.65
2022-10-21T21:26:27.560Z,10.94
2022-10-21T21:28:55.006Z,10.90
2022-10-21T21:31:24.280Z,10.82
2022-10-21T21:33:51.438Z,10.79
2022-10-21T21:36:19.991Z,10.74
2022-10-21T21:38:47.549Z,10.69
2022-10-21T21:41:16.775Z,10.65
2022-10-21T21:43:46.024Z,10.63
2022-10-21T21:46:13.001Z,10.52
2022-10-21T21:48:40.550Z,10.60
2022-10-21T21:51:12.782Z,10.84
2022-10-21T21:53:39.671Z,10.99
2022-10-21T21:56:10.146Z,11.01
2022-10-21T21:58:38.380Z,11.10
2022-10-21T22:01:14.281Z,10.78
2022-10-21T22:03:41.487Z,10.74
2022-10-21T22:06:08.912Z,10.96
2022-10-21T22:08:39.394Z,10.83
2022-10-21T22:11:08.984Z,10.79
2022-10-21T22:13:36.939Z,11.01
2022-10-21T22:16:04.422Z,11.09
2022-10-21T22:18:31.432Z,10.78
2022-10-21T22:21:00.437Z,10.65
2022-10-21T22:23:28.084Z,10.64
2022-10-21T22:25:57.004Z,10.66
2022-10-21T22:28:24.460Z,10.65
2022-10-21T22:31:03.508Z,10.55
2022-10-21T22:33:31.393Z,10.82
2022-10-21T22:35:58.721Z,10.73
2022-10-21T22:38:25.697Z,10.74
2022-10-21T22:40:54.446Z,10.88
2022-10-21T22:43:22.075Z,10.94
2022-10-21T22:45:49.235Z,11.00
2022-10-21T22:48:16.751Z,11.07
2022-10-21T22:50:44.037Z,11.18
2022-10-21T22:53:11.312Z,11.20
2022-10-21T22:55:39.413Z,11.17
2022-10-21T22:58:06.721Z,11.12
2022-10-21T23:00:33.751Z,10.90
2022-10-21T23:03:00.687Z,11.01
2022-10-21T23:05:27.568Z,10.97
2022-10-21T23:07:54.417Z,11.03
2022-10-21T23:10:21.361Z,11.14
2022-10-21T23:12:48.386Z,11.07
2022-10-21T23:15:15.278Z,11.26
2022-10-21T23:17:42.158Z,10.93
2022-10-21T23:20:09.608Z,11.00
2022-10-21T23:22:36.483Z,11.13
2022-10-21T23:25:03.505Z,10.89
2022-10-21T23:27:30.447Z,10.50
2022-10-21T23:29:57.362Z,10.19
2022-10-21T23:32:24.355Z,10.18
2022-10-21T23:34:51.234Z,10.22
2022-10-21T23:37:18.107Z,10.32
2022-10-21T23:39:44.949Z,10.48
2022-10-21T23:42:11.857Z,10.53
2022-10-21T23:44:38.706Z,10.17
2022-10-21T23:47:05.608Z,10.07
2022-10-21T23:49:32.516Z,10.18
2022-10-21T23:51:59.494Z,10.13
2022-10-21T23:54:26.370Z,9.90
2022-10-21T23:56:53.260Z,9.96
2022-10-21T23:59:22.122Z,9.97
